Auburn, NY

9:33 PM EST on November 20, 2014 (GMT -0500)
Syracuse Hancock International | Change Station
CLOSE
Current Station
Airport
Location: Syracuse,
Elevation: 420 ft
Nearby Weather Stations

Elev 420 ft 43.11 °N, 76.10 °W | Updated 39 minutes ago

Overcast
Overcast
27 °F
Feels Like 14 °F
N
17
Wind Variable Wind from WSW
Gusts 26 mph

Today
High -- | Low -- °F
--% Chance of Precip.
Yesterday
High -- | Low -- °F
Precip. -- in
7:04 AM 4:38 PM
Waning Crescent, 2% visible
Pressure 29.94 in
Visibility 10.0 miles
Clouds Scattered Clouds 7500 ft
Overcast 9500 ft
Windchill 14 °F
Dew Point 17 °F
Humidity 66%
Rainfall 0.01 in
Snow Depth Not available.
UV 0 out of 12
Pollen .10 out of 12
Air Quality Not available.
Flu Activity Not available.
METAR KSYR 210154Z 24015G23KT 10SM SCT075 OVC095 M03/M08 A2994 RMK AO2 CIG 070 NW SLP139 T10281083 $

More Conditions Fewer Conditions

Pressure 29.94 in
Visibility 10.0 miles
Clouds Scattered Clouds 7500 ft
Overcast 9500 ft
Windchill 14 °F
Dew Point 17 °F
Humidity 66%
Rainfall 0.01 in
Snow Depth Not available.
UV 0 out of 12
Pollen .10 out of 12
Air Quality Not available.
Flu Activity Not available.
METAR KSYR 210154Z 24015G23KT 10SM SCT075 OVC095 M03/M08 A2994 RMK AO2 CIG 070 NW SLP139 T10281083 $

More Conditions Fewer Conditions

Nowcast | as of 7:56 PM EST on November 20, 2014

Through 11 PM. Snow showers will continue across The Finger lakes, the western Mohawk Valley, and the upper Susquehanna region. The heavier snow showers could reduce the visibility to a quarter mile, and drop a quick half inch of snowfall. Travelers should be alert to rapidly changing Road conditions this evening.

×

10-Day Weather Forecast

Almanac

Astronomy

Nov. 20, 2014 Rise Set
Actual Time
Civil Twilight
Nautical Twilight
Astronomical Twilight
Moon
Length of Visible Light
Length of Day
Tomorrow will be .
, % of the Moon is Illuminated

Today's Extremes

State Highs State Lows

Community

WunderPhotos

Upload Photos

1,772,591 photos uploaded!

WunderBlogs® & News

Nearby

Air Quality

  Air Quality AQ Index Pollutant
Not available.

Snow Depth

Station Depth Elevation

Earthquake Activity

City Distance Mag. Time & Date
Minimum magnitude displayed is 2.5.

Coastal Water Temperatures

Place Temperature

Nearby Weather Stations